sensor_id;sensor_type;location;lat;lon;timestamp;P1;durP1;ratioP1;P2;durP2;ratioP2
51987;SDS011;38003;52.012;4.346;2022-12-26T00:00:57;21.50;;;14.87;;
51987;SDS011;38003;52.012;4.346;2022-12-26T00:03:27;21.13;;;15.03;;
51987;SDS011;38003;52.012;4.346;2022-12-26T00:05:55;18.87;;;13.80;;
51987;SDS011;38003;52.012;4.346;2022-12-26T00:08:23;23.47;;;16.00;;
51987;SDS011;38003;52.012;4.346;2022-12-26T00:10:52;21.73;;;15.77;;
51987;SDS011;38003;52.012;4.346;2022-12-26T00:13:20;22.00;;;15.83;;
51987;SDS011;38003;52.012;4.346;2022-12-26T00:16:06;21.43;;;15.83;;
51987;SDS011;38003;52.012;4.346;2022-12-26T00:18:35;22.50;;;16.53;;
51987;SDS011;38003;52.012;4.346;2022-12-26T00:21:03;24.43;;;17.63;;
51987;SDS011;38003;52.012;4.346;2022-12-26T00:23:31;23.37;;;17.60;;
51987;SDS011;38003;52.012;4.346;2022-12-26T00:26:04;25.03;;;17.70;;
51987;SDS011;38003;52.012;4.346;2022-12-26T00:28:33;23.83;;;17.53;;
51987;SDS011;38003;52.012;4.346;2022-12-26T00:31:04;24.93;;;18.40;;
51987;SDS011;38003;52.012;4.346;2022-12-26T00:33:33;23.67;;;17.53;;
51987;SDS011;38003;52.012;4.346;2022-12-26T00:36:03;21.87;;;16.77;;
51987;SDS011;38003;52.012;4.346;2022-12-26T00:38:32;25.40;;;17.57;;
51987;SDS011;38003;52.012;4.346;2022-12-26T00:41:01;22.07;;;16.23;;
51987;SDS011;38003;52.012;4.346;2022-12-26T00:43:30;24.03;;;16.87;;
51987;SDS011;38003;52.012;4.346;2022-12-26T00:45:59;22.13;;;15.77;;
51987;SDS011;38003;52.012;4.346;2022-12-26T00:48:27;23.03;;;16.47;;
51987;SDS011;38003;52.012;4.346;2022-12-26T00:50:55;20.33;;;14.40;;
51987;SDS011;38003;52.012;4.346;2022-12-26T00:53:23;21.63;;;14.33;;
51987;SDS011;38003;52.012;4.346;2022-12-26T00:55:51;19.83;;;14.53;;
51987;SDS011;38003;52.012;4.346;2022-12-26T00:58:20;22.30;;;15.10;;
51987;SDS011;38003;52.012;4.346;2022-12-26T01:00:50;22.10;;;14.80;;
51987;SDS011;38003;52.012;4.346;2022-12-26T01:03:18;18.37;;;14.63;;
51987;SDS011;38003;52.012;4.346;2022-12-26T01:05:47;18.33;;;14.23;;
51987;SDS011;38003;52.012;4.346;2022-12-26T01:08:16;21.57;;;15.67;;
51987;SDS011;38003;52.012;4.346;2022-12-26T01:10:50;19.70;;;14.40;;
51987;SDS011;38003;52.012;4.346;2022-12-26T01:13:18;22.10;;;15.43;;
51987;SDS011;38003;52.012;4.346;2022-12-26T01:15:46;17.93;;;13.43;;
51987;SDS011;38003;52.012;4.346;2022-12-26T01:18:16;17.83;;;13.53;;
51987;SDS011;38003;52.012;4.346;2022-12-26T01:20:44;19.33;;;13.80;;
51987;SDS011;38003;52.012;4.346;2022-12-26T01:23:13;17.73;;;13.20;;
51987;SDS011;38003;52.012;4.346;2022-12-26T01:25:41;14.87;;;11.80;;
51987;SDS011;38003;52.012;4.346;2022-12-26T01:28:29;17.83;;;13.20;;
51987;SDS011;38003;52.012;4.346;2022-12-26T01:30:59;17.83;;;13.30;;
51987;SDS011;38003;52.012;4.346;2022-12-26T01:33:29;16.70;;;12.77;;
51987;SDS011;38003;52.012;4.346;2022-12-26T01:35:58;15.17;;;12.40;;
51987;SDS011;38003;52.012;4.346;2022-12-26T01:38:26;16.73;;;12.13;;
51987;SDS011;38003;52.012;4.346;2022-12-26T01:40:55;17.00;;;12.67;;
51987;SDS011;38003;52.012;4.346;2022-12-26T01:43:46;16.60;;;12.83;;
51987;SDS011;38003;52.012;4.346;2022-12-26T01:46:16;16.03;;;13.07;;
51987;SDS011;38003;52.012;4.346;2022-12-26T01:48:47;17.50;;;12.87;;
51987;SDS011;38003;52.012;4.346;2022-12-26T01:51:16;17.27;;;12.00;;
51987;SDS011;38003;52.012;4.346;2022-12-26T01:53:48;17.43;;;12.87;;
51987;SDS011;38003;52.012;4.346;2022-12-26T01:56:19;16.47;;;12.70;;
51987;SDS011;38003;52.012;4.346;2022-12-26T01:58:50;17.43;;;12.23;;
51987;SDS011;38003;52.012;4.346;2022-12-26T02:01:23;13.77;;;12.00;;
51987;SDS011;38003;52.012;4.346;2022-12-26T02:03:56;15.50;;;12.50;;
51987;SDS011;38003;52.012;4.346;2022-12-26T02:06:43;15.77;;;11.73;;
51987;SDS011;38003;52.012;4.346;2022-12-26T02:09:11;14.57;;;12.53;;
51987;SDS011;38003;52.012;4.346;2022-12-26T02:11:40;15.70;;;13.07;;
51987;SDS011;38003;52.012;4.346;2022-12-26T02:14:11;17.87;;;13.07;;
51987;SDS011;38003;52.012;4.346;2022-12-26T02:16:39;15.13;;;12.47;;
51987;SDS011;38003;52.012;4.346;2022-12-26T02:19:11;15.43;;;12.83;;
51987;SDS011;38003;52.012;4.346;2022-12-26T02:22:02;14.03;;;11.90;;
51987;SDS011;38003;52.012;4.346;2022-12-26T02:27:57;17.30;;;12.10;;
51987;SDS011;38003;52.012;4.346;2022-12-26T02:30:56;16.63;;;11.33;;
51987;SDS011;38003;52.012;4.346;2022-12-26T02:33:36;14.07;;;11.13;;
51987;SDS011;38003;52.012;4.346;2022-12-26T02:36:20;13.57;;;10.97;;
51987;SDS011;38003;52.012;4.346;2022-12-26T02:39:05;14.40;;;10.67;;
51987;SDS011;38003;52.012;4.346;2022-12-26T02:42:04;14.50;;;11.33;;
51987;SDS011;38003;52.012;4.346;2022-12-26T02:44:42;14.10;;;11.00;;
51987;SDS011;38003;52.012;4.346;2022-12-26T02:47:35;15.77;;;11.40;;
51987;SDS011;38003;52.012;4.346;2022-12-26T02:50:08;17.73;;;11.60;;
51987;SDS011;38003;52.012;4.346;2022-12-26T02:53:01;14.70;;;12.53;;
51987;SDS011;38003;52.012;4.346;2022-12-26T02:55:54;15.17;;;11.77;;
51987;SDS011;38003;52.012;4.346;2022-12-26T02:58:47;12.97;;;11.00;;
51987;SDS011;38003;52.012;4.346;2022-12-26T03:01:38;14.53;;;11.70;;
51987;SDS011;38003;52.012;4.346;2022-12-26T03:04:30;13.37;;;11.33;;
51987;SDS011;38003;52.012;4.346;2022-12-26T03:07:19;13.73;;;11.53;;
51987;SDS011;38003;52.012;4.346;2022-12-26T03:10:13;14.60;;;11.97;;
51987;SDS011;38003;52.012;4.346;2022-12-26T03:13:03;13.70;;;12.17;;
51987;SDS011;38003;52.012;4.346;2022-12-26T03:15:38;15.23;;;12.33;;
51987;SDS011;38003;52.012;4.346;2022-12-26T03:18:29;14.00;;;11.60;;
51987;SDS011;38003;52.012;4.346;2022-12-26T03:21:22;13.70;;;12.23;;
51987;SDS011;38003;52.012;4.346;2022-12-26T03:23:53;13.40;;;11.80;;
51987;SDS011;38003;52.012;4.346;2022-12-26T03:26:24;13.37;;;11.97;;
51987;SDS011;38003;52.012;4.346;2022-12-26T03:29:06;12.27;;;10.97;;
51987;SDS011;38003;52.012;4.346;2022-12-26T03:31:54;13.67;;;10.40;;
51987;SDS011;38003;52.012;4.346;2022-12-26T03:34:22;10.80;;;9.67;;
51987;SDS011;38003;52.012;4.346;2022-12-26T03:37:00;11.03;;;9.83;;
51987;SDS011;38003;52.012;4.346;2022-12-26T03:40:21;11.60;;;10.33;;
51987;SDS011;38003;52.012;4.346;2022-12-26T03:43:18;11.97;;;10.13;;
51987;SDS011;38003;52.012;4.346;2022-12-26T03:46:19;10.80;;;9.70;;
51987;SDS011;38003;52.012;4.346;2022-12-26T03:49:15;10.10;;;8.57;;
51987;SDS011;38003;52.012;4.346;2022-12-26T03:52:07;12.00;;;9.20;;
51987;SDS011;38003;52.012;4.346;2022-12-26T03:55:00;8.67;;;7.60;;
51987;SDS011;38003;52.012;4.346;2022-12-26T03:57:51;9.90;;;8.00;;
51987;SDS011;38003;52.012;4.346;2022-12-26T04:00:44;10.17;;;7.77;;
51987;SDS011;38003;52.012;4.346;2022-12-26T04:03:32;7.67;;;6.73;;
51987;SDS011;38003;52.012;4.346;2022-12-26T04:06:21;9.10;;;7.07;;
51987;SDS011;38003;52.012;4.346;2022-12-26T04:09:12;9.30;;;7.10;;
51987;SDS011;38003;52.012;4.346;2022-12-26T04:12:03;7.90;;;6.80;;
51987;SDS011;38003;52.012;4.346;2022-12-26T04:14:54;9.87;;;6.30;;
51987;SDS011;38003;52.012;4.346;2022-12-26T04:17:44;8.00;;;5.83;;
51987;SDS011;38003;52.012;4.346;2022-12-26T04:20:35;6.90;;;6.20;;
51987;SDS011;38003;52.012;4.346;2022-12-26T04:23:09;6.53;;;5.30;;
51987;SDS011;38003;52.012;4.346;2022-12-26T04:26:03;7.27;;;4.43;;
51987;SDS011;38003;52.012;4.346;2022-12-26T04:28:55;8.47;;;4.37;;
51987;SDS011;38003;52.012;4.346;2022-12-26T04:31:42;7.50;;;4.73;;
51987;SDS011;38003;52.012;4.346;2022-12-26T04:34:35;8.70;;;4.83;;
51987;SDS011;38003;52.012;4.346;2022-12-26T04:37:28;6.17;;;4.27;;
51987;SDS011;38003;52.012;4.346;2022-12-26T04:40:17;6.73;;;3.97;;
51987;SDS011;38003;52.012;4.346;2022-12-26T04:43:05;7.07;;;3.70;;
51987;SDS011;38003;52.012;4.346;2022-12-26T04:46:13;6.87;;;4.20;;
51987;SDS011;38003;52.012;4.346;2022-12-26T04:48:42;6.17;;;4.33;;
51987;SDS011;38003;52.012;4.346;2022-12-26T04:51:29;5.30;;;4.30;;
51987;SDS011;38003;52.012;4.346;2022-12-26T04:53:57;4.50;;;3.70;;
51987;SDS011;38003;52.012;4.346;2022-12-26T04:56:25;6.30;;;3.93;;
51987;SDS011;38003;52.012;4.346;2022-12-26T04:58:54;5.20;;;4.20;;
51987;SDS011;38003;52.012;4.346;2022-12-26T05:01:22;4.10;;;3.60;;
51987;SDS011;38003;52.012;4.346;2022-12-26T05:04:09;5.80;;;3.83;;
51987;SDS011;38003;52.012;4.346;2022-12-26T05:06:57;5.77;;;4.50;;
51987;SDS011;38003;52.012;4.346;2022-12-26T05:09:43;4.93;;;4.40;;
51987;SDS011;38003;52.012;4.346;2022-12-26T05:12:12;4.83;;;3.80;;
51987;SDS011;38003;52.012;4.346;2022-12-26T05:14:41;5.43;;;3.33;;
51987;SDS011;38003;52.012;4.346;2022-12-26T05:17:09;4.57;;;2.73;;
51987;SDS011;38003;52.012;4.346;2022-12-26T05:19:56;7.23;;;2.90;;
51987;SDS011;38003;52.012;4.346;2022-12-26T05:22:42;3.97;;;2.80;;
51987;SDS011;38003;52.012;4.346;2022-12-26T05:25:29;4.60;;;3.00;;
51987;SDS011;38003;52.012;4.346;2022-12-26T05:28:17;5.80;;;2.80;;
51987;SDS011;38003;52.012;4.346;2022-12-26T05:31:04;7.10;;;2.77;;
51987;SDS011;38003;52.012;4.346;2022-12-26T05:33:33;4.63;;;2.87;;
51987;SDS011;38003;52.012;4.346;2022-12-26T05:36:19;4.70;;;2.70;;
51987;SDS011;38003;52.012;4.346;2022-12-26T05:38:49;4.97;;;2.80;;
51987;SDS011;38003;52.012;4.346;2022-12-26T05:41:17;5.80;;;3.33;;
51987;SDS011;38003;52.012;4.346;2022-12-26T05:43:45;5.93;;;3.00;;
51987;SDS011;38003;52.012;4.346;2022-12-26T05:46:14;5.77;;;3.00;;
51987;SDS011;38003;52.012;4.346;2022-12-26T05:48:42;5.00;;;3.67;;
51987;SDS011;38003;52.012;4.346;2022-12-26T05:51:11;6.60;;;3.63;;
51987;SDS011;38003;52.012;4.346;2022-12-26T05:53:38;4.13;;;3.20;;
51987;SDS011;38003;52.012;4.346;2022-12-26T05:56:08;6.30;;;3.27;;
51987;SDS011;38003;52.012;4.346;2022-12-26T05:58:37;6.57;;;3.57;;
51987;SDS011;38003;52.012;4.346;2022-12-26T06:01:06;6.53;;;3.83;;
51987;SDS011;38003;52.012;4.346;2022-12-26T06:03:37;4.67;;;3.57;;
51987;SDS011;38003;52.012;4.346;2022-12-26T06:06:07;5.40;;;4.00;;
51987;SDS011;38003;52.012;4.346;2022-12-26T06:08:35;4.27;;;3.33;;
51987;SDS011;38003;52.012;4.346;2022-12-26T06:11:04;9.40;;;4.23;;
51987;SDS011;38003;52.012;4.346;2022-12-26T06:13:32;5.13;;;3.77;;
51987;SDS011;38003;52.012;4.346;2022-12-26T06:16:03;4.83;;;3.67;;
51987;SDS011;38003;52.012;4.346;2022-12-26T06:18:32;4.87;;;3.63;;
51987;SDS011;38003;52.012;4.346;2022-12-26T06:21:03;5.17;;;3.43;;
51987;SDS011;38003;52.012;4.346;2022-12-26T06:23:32;3.90;;;3.53;;
51987;SDS011;38003;52.012;4.346;2022-12-26T06:26:00;6.07;;;3.63;;
51987;SDS011;38003;52.012;4.346;2022-12-26T06:28:28;5.13;;;3.53;;
51987;SDS011;38003;52.012;4.346;2022-12-26T06:31:00;8.33;;;3.80;;
51987;SDS011;38003;52.012;4.346;2022-12-26T06:33:29;5.93;;;3.73;;
51987;SDS011;38003;52.012;4.346;2022-12-26T06:36:01;5.10;;;3.40;;
51987;SDS011;38003;52.012;4.346;2022-12-26T06:40:59;4.63;;;3.20;;
51987;SDS011;38003;52.012;4.346;2022-12-26T06:43:27;4.80;;;3.30;;
51987;SDS011;38003;52.012;4.346;2022-12-26T06:45:54;6.97;;;3.70;;
51987;SDS011;38003;52.012;4.346;2022-12-26T06:48:23;5.40;;;3.60;;
51987;SDS011;38003;52.012;4.346;2022-12-26T06:50:52;5.03;;;3.50;;
51987;SDS011;38003;52.012;4.346;2022-12-26T06:53:21;4.37;;;3.50;;
51987;SDS011;38003;52.012;4.346;2022-12-26T06:55:50;6.30;;;3.50;;
51987;SDS011;38003;52.012;4.346;2022-12-26T06:58:18;6.17;;;3.53;;
51987;SDS011;38003;52.012;4.346;2022-12-26T07:00:46;4.97;;;3.67;;
51987;SDS011;38003;52.012;4.346;2022-12-26T07:03:14;7.03;;;3.87;;
51987;SDS011;38003;52.012;4.346;2022-12-26T07:05:42;6.73;;;3.23;;
51987;SDS011;38003;52.012;4.346;2022-12-26T07:08:10;4.73;;;2.93;;
51987;SDS011;38003;52.012;4.346;2022-12-26T07:10:39;6.27;;;3.47;;
51987;SDS011;38003;52.012;4.346;2022-12-26T07:13:07;6.33;;;3.30;;
51987;SDS011;38003;52.012;4.346;2022-12-26T07:15:34;6.40;;;3.57;;
51987;SDS011;38003;52.012;4.346;2022-12-26T07:18:02;6.57;;;3.73;;
51987;SDS011;38003;52.012;4.346;2022-12-26T07:20:30;5.23;;;3.30;;
51987;SDS011;38003;52.012;4.346;2022-12-26T07:22:58;5.87;;;3.10;;
51987;SDS011;38003;52.012;4.346;2022-12-26T07:25:26;5.67;;;3.20;;
51987;SDS011;38003;52.012;4.346;2022-12-26T07:27:55;6.17;;;3.03;;
51987;SDS011;38003;52.012;4.346;2022-12-26T07:30:23;12.27;;;3.70;;
51987;SDS011;38003;52.012;4.346;2022-12-26T07:32:51;6.63;;;3.17;;
51987;SDS011;38003;52.012;4.346;2022-12-26T07:35:19;7.70;;;2.83;;
51987;SDS011;38003;52.012;4.346;2022-12-26T07:37:46;6.20;;;3.00;;
51987;SDS011;38003;52.012;4.346;2022-12-26T07:40:14;5.57;;;3.33;;
51987;SDS011;38003;52.012;4.346;2022-12-26T07:42:42;8.53;;;4.77;;
51987;SDS011;38003;52.012;4.346;2022-12-26T07:45:11;6.63;;;3.20;;
51987;SDS011;38003;52.012;4.346;2022-12-26T07:47:39;10.30;;;3.33;;
51987;SDS011;38003;52.012;4.346;2022-12-26T07:50:07;8.30;;;3.47;;
51987;SDS011;38003;52.012;4.346;2022-12-26T07:52:36;7.43;;;3.20;;
51987;SDS011;38003;52.012;4.346;2022-12-26T07:55:04;10.33;;;3.10;;
51987;SDS011;38003;52.012;4.346;2022-12-26T07:57:32;6.50;;;3.10;;
51987;SDS011;38003;52.012;4.346;2022-12-26T08:00:17;9.07;;;3.53;;
51987;SDS011;38003;52.012;4.346;2022-12-26T08:02:46;4.63;;;2.97;;
51987;SDS011;38003;52.012;4.346;2022-12-26T08:05:15;5.40;;;3.17;;
51987;SDS011;38003;52.012;4.346;2022-12-26T08:07:46;9.27;;;3.33;;
51987;SDS011;38003;52.012;4.346;2022-12-26T08:10:14;6.60;;;2.87;;
51987;SDS011;38003;52.012;4.346;2022-12-26T08:12:43;4.83;;;2.10;;
51987;SDS011;38003;52.012;4.346;2022-12-26T08:15:11;5.57;;;1.80;;
51987;SDS011;38003;52.012;4.346;2022-12-26T08:17:40;7.60;;;2.27;;
51987;SDS011;38003;52.012;4.346;2022-12-26T08:20:08;6.33;;;1.70;;
51987;SDS011;38003;52.012;4.346;2022-12-26T08:22:36;5.77;;;1.70;;
51987;SDS011;38003;52.012;4.346;2022-12-26T08:25:05;5.33;;;1.27;;
51987;SDS011;38003;52.012;4.346;2022-12-26T08:27:33;6.43;;;1.20;;
51987;SDS011;38003;52.012;4.346;2022-12-26T08:30:01;7.57;;;1.77;;
51987;SDS011;38003;52.012;4.346;2022-12-26T08:32:30;11.50;;;1.70;;
51987;SDS011;38003;52.012;4.346;2022-12-26T08:34:59;4.27;;;1.50;;
51987;SDS011;38003;52.012;4.346;2022-12-26T08:37:27;11.07;;;2.10;;
51987;SDS011;38003;52.012;4.346;2022-12-26T08:39:54;7.80;;;2.10;;
51987;SDS011;38003;52.012;4.346;2022-12-26T08:42:22;6.33;;;1.80;;
51987;SDS011;38003;52.012;4.346;2022-12-26T08:44:50;16.97;;;2.13;;
51987;SDS011;38003;52.012;4.346;2022-12-26T08:47:18;6.70;;;2.13;;
51987;SDS011;38003;52.012;4.346;2022-12-26T08:49:47;8.17;;;1.90;;
51987;SDS011;38003;52.012;4.346;2022-12-26T08:52:16;10.73;;;2.00;;
51987;SDS011;38003;52.012;4.346;2022-12-26T08:54:44;11.20;;;2.50;;
51987;SDS011;38003;52.012;4.346;2022-12-26T08:57:11;23.27;;;3.37;;
51987;SDS011;38003;52.012;4.346;2022-12-26T08:59:40;14.60;;;3.17;;
51987;SDS011;38003;52.012;4.346;2022-12-26T09:02:08;13.23;;;2.63;;
51987;SDS011;38003;52.012;4.346;2022-12-26T09:04:37;7.83;;;2.10;;
51987;SDS011;38003;52.012;4.346;2022-12-26T09:07:06;8.77;;;1.77;;
51987;SDS011;38003;52.012;4.346;2022-12-26T09:09:36;4.03;;;1.40;;
51987;SDS011;38003;52.012;4.346;2022-12-26T09:12:05;3.53;;;1.40;;
51987;SDS011;38003;52.012;4.346;2022-12-26T09:14:32;12.27;;;2.13;;
51987;SDS011;38003;52.012;4.346;2022-12-26T09:17:00;12.63;;;2.23;;
51987;SDS011;38003;52.012;4.346;2022-12-26T09:19:28;10.07;;;2.10;;
51987;SDS011;38003;52.012;4.346;2022-12-26T09:21:57;10.13;;;1.97;;
51987;SDS011;38003;52.012;4.346;2022-12-26T09:24:44;7.77;;;1.80;;
51987;SDS011;38003;52.012;4.346;2022-12-26T09:27:12;10.03;;;1.73;;
51987;SDS011;38003;52.012;4.346;2022-12-26T09:29:40;9.00;;;2.10;;
51987;SDS011;38003;52.012;4.346;2022-12-26T09:32:08;7.33;;;1.37;;
51987;SDS011;38003;52.012;4.346;2022-12-26T09:34:35;16.37;;;2.00;;
51987;SDS011;38003;52.012;4.346;2022-12-26T09:37:03;7.07;;;1.80;;
51987;SDS011;38003;52.012;4.346;2022-12-26T09:39:31;6.93;;;1.50;;
51987;SDS011;38003;52.012;4.346;2022-12-26T09:42:03;4.93;;;1.60;;
51987;SDS011;38003;52.012;4.346;2022-12-26T09:44:41;6.90;;;1.70;;
51987;SDS011;38003;52.012;4.346;2022-12-26T09:47:17;7.80;;;1.57;;
51987;SDS011;38003;52.012;4.346;2022-12-26T09:49:55;3.73;;;1.23;;
51987;SDS011;38003;52.012;4.346;2022-12-26T09:52:27;10.23;;;1.83;;
51987;SDS011;38003;52.012;4.346;2022-12-26T09:55:13;7.40;;;1.53;;
51987;SDS011;38003;52.012;4.346;2022-12-26T09:57:58;9.87;;;1.73;;
51987;SDS011;38003;52.012;4.346;2022-12-26T10:00:32;8.33;;;1.90;;
51987;SDS011;38003;52.012;4.346;2022-12-26T10:03:08;12.00;;;1.63;;
51987;SDS011;38003;52.012;4.346;2022-12-26T10:05:39;11.70;;;2.27;;
51987;SDS011;38003;52.012;4.346;2022-12-26T10:08:17;7.53;;;1.90;;
51987;SDS011;38003;52.012;4.346;2022-12-26T10:10:53;9.23;;;1.93;;
51987;SDS011;38003;52.012;4.346;2022-12-26T10:13:33;3.77;;;1.30;;
51987;SDS011;38003;52.012;4.346;2022-12-26T10:16:07;8.03;;;1.80;;
51987;SDS011;38003;52.012;4.346;2022-12-26T10:18:44;13.80;;;2.70;;
51987;SDS011;38003;52.012;4.346;2022-12-26T10:21:25;5.63;;;1.47;;
51987;SDS011;38003;52.012;4.346;2022-12-26T10:24:01;6.67;;;1.53;;
51987;SDS011;38003;52.012;4.346;2022-12-26T10:26:34;5.47;;;1.80;;
51987;SDS011;38003;52.012;4.346;2022-12-26T10:29:11;8.83;;;2.57;;
51987;SDS011;38003;52.012;4.346;2022-12-26T10:31:47;5.70;;;1.47;;
51987;SDS011;38003;52.012;4.346;2022-12-26T10:34:19;6.00;;;1.93;;
51987;SDS011;38003;52.012;4.346;2022-12-26T10:36:53;7.97;;;1.80;;
51987;SDS011;38003;52.012;4.346;2022-12-26T10:39:26;4.03;;;1.43;;
51987;SDS011;38003;52.012;4.346;2022-12-26T10:41:58;9.87;;;1.60;;
51987;SDS011;38003;52.012;4.346;2022-12-26T10:44:31;5.03;;;1.33;;
51987;SDS011;38003;52.012;4.346;2022-12-26T10:47:02;8.23;;;1.60;;
51987;SDS011;38003;52.012;4.346;2022-12-26T10:49:40;6.03;;;1.63;;
51987;SDS011;38003;52.012;4.346;2022-12-26T10:52:10;7.97;;;1.90;;
51987;SDS011;38003;52.012;4.346;2022-12-26T10:54:39;5.03;;;1.37;;
51987;SDS011;38003;52.012;4.346;2022-12-26T10:57:07;5.77;;;1.47;;
51987;SDS011;38003;52.012;4.346;2022-12-26T10:59:42;5.10;;;2.10;;
51987;SDS011;38003;52.012;4.346;2022-12-26T11:02:21;7.23;;;1.60;;
51987;SDS011;38003;52.012;4.346;2022-12-26T11:05:02;5.87;;;1.40;;
51987;SDS011;38003;52.012;4.346;2022-12-26T11:07:54;8.20;;;2.00;;
51987;SDS011;38003;52.012;4.346;2022-12-26T11:10:24;5.47;;;1.30;;
51987;SDS011;38003;52.012;4.346;2022-12-26T11:12:55;5.07;;;1.43;;
51987;SDS011;38003;52.012;4.346;2022-12-26T11:15:30;5.73;;;0.90;;
51987;SDS011;38003;52.012;4.346;2022-12-26T11:18:07;3.80;;;1.00;;
51987;SDS011;38003;52.012;4.346;2022-12-26T11:20:43;6.17;;;1.10;;
51987;SDS011;38003;52.012;4.346;2022-12-26T11:23:13;4.60;;;1.27;;
51987;SDS011;38003;52.012;4.346;2022-12-26T11:25:49;3.70;;;1.20;;
51987;SDS011;38003;52.012;4.346;2022-12-26T11:28:19;3.70;;;0.90;;
51987;SDS011;38003;52.012;4.346;2022-12-26T11:30:54;4.00;;;1.10;;
51987;SDS011;38003;52.012;4.346;2022-12-26T11:33:24;6.00;;;1.00;;
51987;SDS011;38003;52.012;4.346;2022-12-26T11:35:57;3.13;;;1.10;;
51987;SDS011;38003;52.012;4.346;2022-12-26T11:38:39;6.10;;;0.97;;
51987;SDS011;38003;52.012;4.346;2022-12-26T11:41:13;2.57;;;1.33;;
51987;SDS011;38003;52.012;4.346;2022-12-26T11:44:01;2.57;;;0.90;;
51987;SDS011;38003;52.012;4.346;2022-12-26T11:46:34;6.87;;;1.17;;
51987;SDS011;38003;52.012;4.346;2022-12-26T11:49:05;5.97;;;0.80;;
51987;SDS011;38003;52.012;4.346;2022-12-26T11:51:41;4.27;;;1.00;;
51987;SDS011;38003;52.012;4.346;2022-12-26T11:54:23;5.17;;;1.10;;
51987;SDS011;38003;52.012;4.346;2022-12-26T11:57:14;4.23;;;2.07;;
51987;SDS011;38003;52.012;4.346;2022-12-26T11:59:45;5.47;;;0.97;;
51987;SDS011;38003;52.012;4.346;2022-12-26T12:02:17;4.83;;;0.93;;
51987;SDS011;38003;52.012;4.346;2022-12-26T12:04:54;4.13;;;0.97;;
51987;SDS011;38003;52.012;4.346;2022-12-26T12:07:37;1.97;;;0.90;;
51987;SDS011;38003;52.012;4.346;2022-12-26T12:13:44;4.63;;;1.10;;
51987;SDS011;38003;52.012;4.346;2022-12-26T12:19:26;7.63;;;1.10;;
51987;SDS011;38003;52.012;4.346;2022-12-26T12:28:03;4.97;;;1.20;;
51987;SDS011;38003;52.012;4.346;2022-12-26T12:30:43;3.53;;;0.80;;
51987;SDS011;38003;52.012;4.346;2022-12-26T12:33:23;2.63;;;0.80;;
51987;SDS011;38003;52.012;4.346;2022-12-26T12:36:09;2.27;;;1.23;;
51987;SDS011;38003;52.012;4.346;2022-12-26T12:38:45;5.67;;;1.10;;
51987;SDS011;38003;52.012;4.346;2022-12-26T12:44:29;3.60;;;0.93;;
51987;SDS011;38003;52.012;4.346;2022-12-26T12:47:09;2.43;;;0.80;;
51987;SDS011;38003;52.012;4.346;2022-12-26T12:49:50;6.33;;;0.93;;
51987;SDS011;38003;52.012;4.346;2022-12-26T12:52:33;5.90;;;1.07;;
51987;SDS011;38003;52.012;4.346;2022-12-26T12:55:24;2.20;;;0.97;;
51987;SDS011;38003;52.012;4.346;2022-12-26T12:58:11;4.53;;;1.10;;
51987;SDS011;38003;52.012;4.346;2022-12-26T13:00:49;6.20;;;1.20;;
51987;SDS011;38003;52.012;4.346;2022-12-26T13:03:24;6.03;;;1.00;;
51987;SDS011;38003;52.012;4.346;2022-12-26T13:05:56;5.53;;;1.13;;
51987;SDS011;38003;52.012;4.346;2022-12-26T13:08:35;4.77;;;0.90;;
51987;SDS011;38003;52.012;4.346;2022-12-26T13:11:07;5.47;;;1.10;;
51987;SDS011;38003;52.012;4.346;2022-12-26T13:13:42;5.10;;;0.80;;
51987;SDS011;38003;52.012;4.346;2022-12-26T13:16:19;4.30;;;0.90;;
51987;SDS011;38003;52.012;4.346;2022-12-26T13:18:52;3.77;;;0.87;;
51987;SDS011;38003;52.012;4.346;2022-12-26T13:21:23;4.80;;;0.90;;
51987;SDS011;38003;52.012;4.346;2022-12-26T13:23:55;4.20;;;0.90;;
51987;SDS011;38003;52.012;4.346;2022-12-26T13:26:45;5.90;;;1.13;;
51987;SDS011;38003;52.012;4.346;2022-12-26T13:29:18;5.77;;;1.20;;
51987;SDS011;38003;52.012;4.346;2022-12-26T13:31:55;4.73;;;1.10;;
51987;SDS011;38003;52.012;4.346;2022-12-26T13:34:24;7.03;;;0.90;;
51987;SDS011;38003;52.012;4.346;2022-12-26T13:36:53;6.53;;;1.60;;
51987;SDS011;38003;52.012;4.346;2022-12-26T13:39:30;4.23;;;1.00;;
51987;SDS011;38003;52.012;4.346;2022-12-26T13:42:04;5.53;;;0.93;;
51987;SDS011;38003;52.012;4.346;2022-12-26T13:51:40;2.90;;;1.20;;
51987;SDS011;38003;52.012;4.346;2022-12-26T13:54:13;6.00;;;1.17;;
51987;SDS011;38003;52.012;4.346;2022-12-26T13:56:58;5.90;;;1.13;;
51987;SDS011;38003;52.012;4.346;2022-12-26T14:00:03;3.07;;;0.80;;
51987;SDS011;38003;52.012;4.346;2022-12-26T14:05:47;3.43;;;1.07;;
51987;SDS011;38003;52.012;4.346;2022-12-26T14:08:41;10.03;;;1.70;;
51987;SDS011;38003;52.012;4.346;2022-12-26T14:11:26;7.00;;;1.80;;
51987;SDS011;38003;52.012;4.346;2022-12-26T14:14:09;8.10;;;1.63;;
51987;SDS011;38003;52.012;4.346;2022-12-26T14:16:46;8.83;;;1.60;;
51987;SDS011;38003;52.012;4.346;2022-12-26T14:19:25;6.03;;;1.33;;
51987;SDS011;38003;52.012;4.346;2022-12-26T14:22:06;8.87;;;1.67;;
51987;SDS011;38003;52.012;4.346;2022-12-26T14:24:44;11.53;;;1.63;;
51987;SDS011;38003;52.012;4.346;2022-12-26T14:27:30;6.03;;;1.30;;
51987;SDS011;38003;52.012;4.346;2022-12-26T14:30:16;5.60;;;1.20;;
51987;SDS011;38003;52.012;4.346;2022-12-26T14:32:51;4.00;;;1.57;;
51987;SDS011;38003;52.012;4.346;2022-12-26T14:35:32;3.00;;;0.97;;
51987;SDS011;38003;52.012;4.346;2022-12-26T14:38:09;11.00;;;1.73;;
51987;SDS011;38003;52.012;4.346;2022-12-26T14:40:59;6.23;;;1.30;;
51987;SDS011;38003;52.012;4.346;2022-12-26T14:43:31;6.77;;;1.37;;
51987;SDS011;38003;52.012;4.346;2022-12-26T14:46:03;7.50;;;1.50;;
51987;SDS011;38003;52.012;4.346;2022-12-26T14:48:41;8.60;;;1.70;;
51987;SDS011;38003;52.012;4.346;2022-12-26T14:51:27;4.10;;;1.17;;
51987;SDS011;38003;52.012;4.346;2022-12-26T15:00:12;8.00;;;1.57;;
51987;SDS011;38003;52.012;4.346;2022-12-26T15:06:25;6.07;;;0.90;;
51987;SDS011;38003;52.012;4.346;2022-12-26T15:09:22;9.20;;;1.60;;
51987;SDS011;38003;52.012;4.346;2022-12-26T15:12:13;9.23;;;2.73;;
51987;SDS011;38003;52.012;4.346;2022-12-26T15:15:25;7.47;;;1.90;;
51987;SDS011;38003;52.012;4.346;2022-12-26T15:18:23;7.13;;;3.57;;
51987;SDS011;38003;52.012;4.346;2022-12-26T15:21:17;7.50;;;1.80;;
51987;SDS011;38003;52.012;4.346;2022-12-26T15:24:04;6.43;;;1.60;;
51987;SDS011;38003;52.012;4.346;2022-12-26T15:27:09;6.93;;;1.70;;
51987;SDS011;38003;52.012;4.346;2022-12-26T15:29:56;7.53;;;1.80;;
51987;SDS011;38003;52.012;4.346;2022-12-26T15:32:38;9.97;;;2.10;;
51987;SDS011;38003;52.012;4.346;2022-12-26T15:35:15;6.23;;;1.50;;
51987;SDS011;38003;52.012;4.346;2022-12-26T15:37:54;7.30;;;1.67;;
51987;SDS011;38003;52.012;4.346;2022-12-26T15:40:44;8.77;;;1.23;;
51987;SDS011;38003;52.012;4.346;2022-12-26T15:43:24;12.50;;;1.77;;
51987;SDS011;38003;52.012;4.346;2022-12-26T15:46:04;9.93;;;3.93;;
51987;SDS011;38003;52.012;4.346;2022-12-26T15:48:43;11.10;;;1.97;;
51987;SDS011;38003;52.012;4.346;2022-12-26T15:51:41;9.37;;;1.73;;
51987;SDS011;38003;52.012;4.346;2022-12-26T15:54:25;8.90;;;1.83;;
51987;SDS011;38003;52.012;4.346;2022-12-26T15:57:09;11.83;;;1.80;;
51987;SDS011;38003;52.012;4.346;2022-12-26T15:59:49;10.10;;;2.20;;
51987;SDS011;38003;52.012;4.346;2022-12-26T16:02:31;9.80;;;1.70;;
51987;SDS011;38003;52.012;4.346;2022-12-26T16:07:59;7.30;;;1.33;;
51987;SDS011;38003;52.012;4.346;2022-12-26T16:10:36;6.27;;;1.90;;
51987;SDS011;38003;52.012;4.346;2022-12-26T16:13:05;4.93;;;1.87;;
51987;SDS011;38003;52.012;4.346;2022-12-26T16:15:49;8.27;;;2.27;;
51987;SDS011;38003;52.012;4.346;2022-12-26T16:18:19;7.30;;;1.63;;